Terminal Aerodrome Forecast
Issued by NWS Albany, NY

Home | Current Version | Previous Version | Text Only | Print | Product List | Glossary On
Versions: 1 2 3 4 5 6 7 8 9 10 11 12 13 14 15 16 17 18 19 20 21
000
FTUS41 KALY 141000 AAD
TAFALB
TAF AMD
KALB 141004Z 1410/1506 00000KT 1/4SM FG VV002
     FM141200 18008KT P6SM VCSH BKN050
     FM150300 17004KT P6SM VCSH BKN040=

USA.gov is the U.S. government's official web portal to all federal, state and local government web resources and services.